Emmett, Idaho
Current Conditions -  °F | °C
As of 1:35 PM on Saturday 25 Oct 2014 (Local Time) from KEUL Reporting Station
Clear Clear  
Wind Chill: 50°   Ceiling: Unl
Heat Index: 50°   Visibility: 5mi
Dew Point: 43°   Wind: 6mph
Humidity: 76%   Direction: 360°N
Pressure: 29.8"   Gusts: NA
Location:  43.87°N, 116.5°W
Report Text: KEUL 251935Z AUTO 36005KT 5SM CLR 10/06 A2980 RMK AO1
Loading
Personal Weather Stations






























Interactive Weather Map
Tropical Storm Tracking
New forecast layout! Learn more

10-Day Weather Forecast

Advertisements
Track Severe Weather on mobile